sensor_id;sensor_type;location;lat;lon;timestamp;pressure;altitude;pressure_sealevel;temperature;humidity
77877;BME280;67251;50.844;7.978;2023-05-16T00:00:06;98669.84;;;8.65;100.00
77877;BME280;67251;50.844;7.978;2023-05-16T00:02:35;98670.94;;;8.70;100.00
77877;BME280;67251;50.844;7.978;2023-05-16T00:05:02;98674.47;;;8.78;100.00
77877;BME280;67251;50.844;7.978;2023-05-16T00:07:29;98668.34;;;8.84;100.00
77877;BME280;67251;50.844;7.978;2023-05-16T00:09:54;98668.59;;;8.89;100.00
77877;BME280;67251;50.844;7.978;2023-05-16T00:12:20;98665.53;;;8.92;99.73
77877;BME280;67251;50.844;7.978;2023-05-16T00:14:47;98665.16;;;8.95;99.57
77877;BME280;67251;50.844;7.978;2023-05-16T00:17:13;98662.91;;;8.99;99.57
77877;BME280;67251;50.844;7.978;2023-05-16T00:19:38;98660.69;;;9.02;99.48
77877;BME280;67251;50.844;7.978;2023-05-16T00:22:04;98664.00;;;9.04;99.51
77877;BME280;67251;50.844;7.978;2023-05-16T00:24:32;98662.75;;;9.07;99.34
77877;BME280;67251;50.844;7.978;2023-05-16T00:26:57;98664.41;;;9.08;99.07
77877;BME280;67251;50.844;7.978;2023-05-16T00:29:22;98665.25;;;9.08;98.92
77877;BME280;67251;50.844;7.978;2023-05-16T00:31:51;98661.78;;;9.14;98.86
77877;BME280;67251;50.844;7.978;2023-05-16T00:34:16;98662.41;;;9.16;98.49
77877;BME280;67251;50.844;7.978;2023-05-16T00:36:42;98671.66;;;9.20;97.66
77877;BME280;67251;50.844;7.978;2023-05-16T00:39:07;98671.91;;;9.26;97.20
77877;BME280;67251;50.844;7.978;2023-05-16T00:41:35;98665.53;;;9.27;96.81
77877;BME280;67251;50.844;7.978;2023-05-16T00:44:01;98669.66;;;9.29;96.39
77877;BME280;67251;50.844;7.978;2023-05-16T00:46:26;98665.16;;;9.30;96.21
77877;BME280;67251;50.844;7.978;2023-05-16T00:48:51;98664.34;;;9.29;95.90
77877;BME280;67251;50.844;7.978;2023-05-16T00:51:17;98656.31;;;9.29;95.83
77877;BME280;67251;50.844;7.978;2023-05-16T00:53:43;98660.84;;;9.29;95.67
77877;BME280;67251;50.844;7.978;2023-05-16T00:56:09;98654.84;;;9.27;95.45
77877;BME280;67251;50.844;7.978;2023-05-16T00:58:35;98653.84;;;9.28;95.12
77877;BME280;67251;50.844;7.978;2023-05-16T01:01:01;98663.50;;;9.29;94.56
77877;BME280;67251;50.844;7.978;2023-05-16T01:03:28;98658.16;;;9.29;94.29
77877;BME280;67251;50.844;7.978;2023-05-16T01:05:54;98655.50;;;9.29;94.08
77877;BME280;67251;50.844;7.978;2023-05-16T01:08:19;98668.22;;;9.27;93.78
77877;BME280;67251;50.844;7.978;2023-05-16T01:11:07;98662.25;;;9.25;92.68
77877;BME280;67251;50.844;7.978;2023-05-16T01:13:50;98664.09;;;9.24;92.54
77877;BME280;67251;50.844;7.978;2023-05-16T01:16:41;98665.94;;;9.24;92.21
77877;BME280;67251;50.844;7.978;2023-05-16T01:21:52;98665.31;;;9.21;92.16
77877;BME280;67251;50.844;7.978;2023-05-16T01:24:29;98670.84;;;9.20;91.93
77877;BME280;67251;50.844;7.978;2023-05-16T01:26:58;98669.22;;;9.19;91.95
77877;BME280;67251;50.844;7.978;2023-05-16T01:29:24;98667.56;;;9.18;91.81
77877;BME280;67251;50.844;7.978;2023-05-16T01:31:50;98665.28;;;9.15;92.28
77877;BME280;67251;50.844;7.978;2023-05-16T01:34:15;98668.16;;;9.13;92.38
77877;BME280;67251;50.844;7.978;2023-05-16T01:37:04;98667.34;;;9.13;92.21
77877;BME280;67251;50.844;7.978;2023-05-16T01:42:42;98672.84;;;9.11;92.02
77877;BME280;67251;50.844;7.978;2023-05-16T01:45:12;98676.53;;;9.10;92.07
77877;BME280;67251;50.844;7.978;2023-05-16T01:47:42;98670.59;;;9.08;91.97
77877;BME280;67251;50.844;7.978;2023-05-16T01:53:38;98660.28;;;9.05;91.87
77877;BME280;67251;50.844;7.978;2023-05-16T01:56:05;98662.97;;;9.05;91.73
77877;BME280;67251;50.844;7.978;2023-05-16T01:58:34;98669.31;;;9.04;91.79
77877;BME280;67251;50.844;7.978;2023-05-16T02:01:03;98670.31;;;9.03;92.16
77877;BME280;67251;50.844;7.978;2023-05-16T02:03:32;98666.22;;;9.01;92.03
77877;BME280;67251;50.844;7.978;2023-05-16T02:05:58;98671.75;;;8.99;92.68
77877;BME280;67251;50.844;7.978;2023-05-16T02:08:24;98678.91;;;8.99;93.00
77877;BME280;67251;50.844;7.978;2023-05-16T02:10:51;98682.81;;;8.96;93.69
77877;BME280;67251;50.844;7.978;2023-05-16T02:13:16;98684.22;;;8.92;94.17
77877;BME280;67251;50.844;7.978;2023-05-16T02:15:42;98687.22;;;8.82;93.13
77877;BME280;67251;50.844;7.978;2023-05-16T02:18:07;98700.66;;;8.67;91.44
77877;BME280;67251;50.844;7.978;2023-05-16T02:20:34;98700.53;;;8.54;90.77
77877;BME280;67251;50.844;7.978;2023-05-16T02:22:59;98699.22;;;8.43;91.52
77877;BME280;67251;50.844;7.978;2023-05-16T02:25:25;98691.69;;;8.32;91.09
77877;BME280;67251;50.844;7.978;2023-05-16T02:27:50;98694.03;;;8.20;92.06
77877;BME280;67251;50.844;7.978;2023-05-16T02:30:16;98701.31;;;8.12;92.15
77877;BME280;67251;50.844;7.978;2023-05-16T02:32:41;98694.25;;;8.04;93.05
77877;BME280;67251;50.844;7.978;2023-05-16T02:35:09;98705.69;;;7.98;92.59
77877;BME280;67251;50.844;7.978;2023-05-16T02:37:35;98696.41;;;7.94;92.94
77877;BME280;67251;50.844;7.978;2023-05-16T02:40:01;98703.56;;;7.93;92.37
77877;BME280;67251;50.844;7.978;2023-05-16T02:42:27;98708.44;;;7.90;92.71
77877;BME280;67251;50.844;7.978;2023-05-16T02:44:53;98709.66;;;7.87;93.25
77877;BME280;67251;50.844;7.978;2023-05-16T02:47:18;98710.84;;;7.85;93.30
77877;BME280;67251;50.844;7.978;2023-05-16T02:49:44;98712.69;;;7.84;93.37
77877;BME280;67251;50.844;7.978;2023-05-16T02:52:09;98706.91;;;7.81;93.55
77877;BME280;67251;50.844;7.978;2023-05-16T02:54:35;98716.94;;;7.79;93.50
77877;BME280;67251;50.844;7.978;2023-05-16T02:57:01;98730.25;;;7.79;93.11
77877;BME280;67251;50.844;7.978;2023-05-16T02:59:26;98730.25;;;7.79;93.27
77877;BME280;67251;50.844;7.978;2023-05-16T03:01:52;98736.59;;;7.78;92.28
77877;BME280;67251;50.844;7.978;2023-05-16T03:04:17;98735.56;;;7.79;92.64
77877;BME280;67251;50.844;7.978;2023-05-16T03:06:43;98729.69;;;7.83;91.30
77877;BME280;67251;50.844;7.978;2023-05-16T03:09:08;98745.66;;;7.83;91.54
77877;BME280;67251;50.844;7.978;2023-05-16T03:11:33;98737.22;;;7.80;90.76
77877;BME280;67251;50.844;7.978;2023-05-16T03:13:59;98743.56;;;7.79;90.34
77877;BME280;67251;50.844;7.978;2023-05-16T03:16:25;98741.72;;;7.79;90.40
77877;BME280;67251;50.844;7.978;2023-05-16T03:18:50;98749.72;;;7.79;90.82
77877;BME280;67251;50.844;7.978;2023-05-16T03:21:15;98746.22;;;7.79;90.54
77877;BME280;67251;50.844;7.978;2023-05-16T03:23:41;98746.22;;;7.79;90.90
77877;BME280;67251;50.844;7.978;2023-05-16T03:26:07;98749.91;;;7.78;90.49
77877;BME280;67251;50.844;7.978;2023-05-16T03:28:32;98751.91;;;7.76;90.74
77877;BME280;67251;50.844;7.978;2023-05-16T03:30:58;98750.28;;;7.75;90.52
77877;BME280;67251;50.844;7.978;2023-05-16T03:33:23;98752.31;;;7.73;90.52
77877;BME280;67251;50.844;7.978;2023-05-16T03:35:49;98759.63;;;7.71;92.13
77877;BME280;67251;50.844;7.978;2023-05-16T03:38:15;98747.34;;;7.69;92.45
77877;BME280;67251;50.844;7.978;2023-05-16T03:40:41;98758.81;;;7.70;92.96
77877;BME280;67251;50.844;7.978;2023-05-16T03:43:07;98767.00;;;7.68;92.80
77877;BME280;67251;50.844;7.978;2023-05-16T03:45:32;98761.88;;;7.67;92.81
77877;BME280;67251;50.844;7.978;2023-05-16T03:47:58;98769.00;;;7.66;92.87
77877;BME280;67251;50.844;7.978;2023-05-16T03:50:23;98762.69;;;7.67;93.38
77877;BME280;67251;50.844;7.978;2023-05-16T03:52:49;98773.50;;;7.66;93.10
77877;BME280;67251;50.844;7.978;2023-05-16T03:55:16;98774.53;;;7.65;92.96
77877;BME280;67251;50.844;7.978;2023-05-16T03:57:43;98788.66;;;7.65;92.77
77877;BME280;67251;50.844;7.978;2023-05-16T04:00:09;98781.06;;;7.62;93.01
77877;BME280;67251;50.844;7.978;2023-05-16T04:02:36;98782.88;;;7.62;92.93
77877;BME280;67251;50.844;7.978;2023-05-16T04:05:01;98790.03;;;7.61;93.24
77877;BME280;67251;50.844;7.978;2023-05-16T04:07:27;98801.69;;;7.60;93.38
77877;BME280;67251;50.844;7.978;2023-05-16T04:09:53;98795.56;;;7.60;93.25
77877;BME280;67251;50.844;7.978;2023-05-16T04:12:19;98798.41;;;7.58;92.55
77877;BME280;67251;50.844;7.978;2023-05-16T04:14:44;98806.41;;;7.58;92.30
77877;BME280;67251;50.844;7.978;2023-05-16T04:17:10;98802.06;;;7.57;91.03
77877;BME280;67251;50.844;7.978;2023-05-16T04:19:36;98803.91;;;7.57;91.81
77877;BME280;67251;50.844;7.978;2023-05-16T04:22:02;98809.41;;;7.55;91.77
77877;BME280;67251;50.844;7.978;2023-05-16T04:24:27;98817.59;;;7.54;92.16
77877;BME280;67251;50.844;7.978;2023-05-16T04:26:53;98824.91;;;7.52;93.07
77877;BME280;67251;50.844;7.978;2023-05-16T04:29:19;98827.78;;;7.50;93.05
77877;BME280;67251;50.844;7.978;2023-05-16T04:31:45;98825.47;;;7.47;92.85
77877;BME280;67251;50.844;7.978;2023-05-16T04:34:11;98831.81;;;7.46;93.63
77877;BME280;67251;50.844;7.978;2023-05-16T04:36:37;98845.47;;;7.43;93.38
77877;BME280;67251;50.844;7.978;2023-05-16T04:39:02;98837.19;;;7.38;92.86
77877;BME280;67251;50.844;7.978;2023-05-16T04:41:28;98837.75;;;7.33;92.81
77877;BME280;67251;50.844;7.978;2023-05-16T04:43:54;98842.44;;;7.31;92.17
77877;BME280;67251;50.844;7.978;2023-05-16T04:46:19;98851.44;;;7.30;93.14
77877;BME280;67251;50.844;7.978;2023-05-16T04:48:45;98854.25;;;7.29;92.84
77877;BME280;67251;50.844;7.978;2023-05-16T04:51:10;98850.59;;;7.30;92.88
77877;BME280;67251;50.844;7.978;2023-05-16T04:53:36;98863.09;;;7.29;92.87
77877;BME280;67251;50.844;7.978;2023-05-16T04:56:02;98860.44;;;7.29;92.41
77877;BME280;67251;50.844;7.978;2023-05-16T04:58:30;98864.91;;;7.29;92.05
77877;BME280;67251;50.844;7.978;2023-05-16T05:00:55;98869.78;;;7.25;92.08
77877;BME280;67251;50.844;7.978;2023-05-16T05:03:20;98875.63;;;7.21;90.74
77877;BME280;67251;50.844;7.978;2023-05-16T05:05:46;98873.13;;;7.19;90.73
77877;BME280;67251;50.844;7.978;2023-05-16T05:08:12;98883.13;;;7.17;91.48
77877;BME280;67251;50.844;7.978;2023-05-16T05:10:37;98884.19;;;7.08;89.74
77877;BME280;67251;50.844;7.978;2023-05-16T05:13:03;98880.72;;;7.07;89.46
77877;BME280;67251;50.844;7.978;2023-05-16T05:15:29;98886.66;;;7.09;90.04
77877;BME280;67251;50.844;7.978;2023-05-16T05:17:55;98901.53;;;7.04;90.93
77877;BME280;67251;50.844;7.978;2023-05-16T05:20:20;98896.91;;;6.98;89.08
77877;BME280;67251;50.844;7.978;2023-05-16T05:22:46;98900.88;;;7.02;89.78
77877;BME280;67251;50.844;7.978;2023-05-16T05:25:11;98899.34;;;7.07;88.65
77877;BME280;67251;50.844;7.978;2023-05-16T05:27:37;98896.53;;;7.24;88.42
77877;BME280;67251;50.844;7.978;2023-05-16T05:30:02;98902.44;;;7.34;87.36
77877;BME280;67251;50.844;7.978;2023-05-16T05:32:28;98901.56;;;7.41;88.67
77877;BME280;67251;50.844;7.978;2023-05-16T05:34:53;98906.59;;;7.36;88.05
77877;BME280;67251;50.844;7.978;2023-05-16T05:37:19;98925.66;;;7.25;88.03
77877;BME280;67251;50.844;7.978;2023-05-16T05:39:44;98915.78;;;7.11;86.68
77877;BME280;67251;50.844;7.978;2023-05-16T05:42:10;98925.66;;;7.02;87.21
77877;BME280;67251;50.844;7.978;2023-05-16T05:44:37;98920.66;;;6.99;88.36
77877;BME280;67251;50.844;7.978;2023-05-16T05:47:04;98932.13;;;7.00;88.36
77877;BME280;67251;50.844;7.978;2023-05-16T05:49:30;98928.31;;;7.02;88.92
77877;BME280;67251;50.844;7.978;2023-05-16T05:51:56;98937.31;;;7.01;88.71
77877;BME280;67251;50.844;7.978;2023-05-16T05:54:22;98944.56;;;7.07;88.75
77877;BME280;67251;50.844;7.978;2023-05-16T05:56:47;98932.38;;;7.13;87.31
77877;BME280;67251;50.844;7.978;2023-05-16T05:59:13;98944.94;;;7.27;88.19
77877;BME280;67251;50.844;7.978;2023-05-16T06:01:38;98950.34;;;7.34;87.98
77877;BME280;67251;50.844;7.978;2023-05-16T06:04:04;98951.03;;;7.36;87.77
77877;BME280;67251;50.844;7.978;2023-05-16T06:06:30;98947.25;;;7.30;86.17
77877;BME280;67251;50.844;7.978;2023-05-16T06:08:56;98963.44;;;7.21;86.07
77877;BME280;67251;50.844;7.978;2023-05-16T06:11:21;98956.41;;;7.28;86.04
77877;BME280;67251;50.844;7.978;2023-05-16T06:13:47;98958.56;;;7.47;85.15
77877;BME280;67251;50.844;7.978;2023-05-16T06:16:12;98962.94;;;7.86;85.45
77877;BME280;67251;50.844;7.978;2023-05-16T06:18:38;98963.78;;;8.16;82.61
77877;BME280;67251;50.844;7.978;2023-05-16T06:21:04;98969.06;;;8.54;80.83
77877;BME280;67251;50.844;7.978;2023-05-16T06:23:30;98979.34;;;8.72;78.76
77877;BME280;67251;50.844;7.978;2023-05-16T06:25:55;98977.06;;;8.54;78.42
77877;BME280;67251;50.844;7.978;2023-05-16T06:28:21;98976.72;;;8.57;79.48
77877;BME280;67251;50.844;7.978;2023-05-16T06:30:48;98966.53;;;8.82;77.90
77877;BME280;67251;50.844;7.978;2023-05-16T06:33:17;98980.84;;;9.10;76.18
77877;BME280;67251;50.844;7.978;2023-05-16T06:35:43;98980.72;;;9.18;75.60
77877;BME280;67251;50.844;7.978;2023-05-16T06:38:09;98988.38;;;9.07;76.32
77877;BME280;67251;50.844;7.978;2023-05-16T06:40:34;98997.66;;;8.45;75.83
77877;BME280;67251;50.844;7.978;2023-05-16T06:43:00;99007.72;;;8.05;77.75
77877;BME280;67251;50.844;7.978;2023-05-16T06:45:25;99021.16;;;7.43;79.33
77877;BME280;67251;50.844;7.978;2023-05-16T06:47:51;99015.19;;;7.18;81.20
77877;BME280;67251;50.844;7.978;2023-05-16T06:50:16;99012.41;;;7.11;82.76
77877;BME280;67251;50.844;7.978;2023-05-16T06:52:41;99018.88;;;7.09;81.69
77877;BME280;67251;50.844;7.978;2023-05-16T06:55:07;99029.72;;;7.07;81.77
77877;BME280;67251;50.844;7.978;2023-05-16T06:57:33;99035.84;;;7.08;82.13
77877;BME280;67251;50.844;7.978;2023-05-16T06:59:58;99026.44;;;6.97;80.56
77877;BME280;67251;50.844;7.978;2023-05-16T07:02:23;99044.06;;;6.98;79.62
77877;BME280;67251;50.844;7.978;2023-05-16T07:04:49;99036.13;;;7.21;80.25
77877;BME280;67251;50.844;7.978;2023-05-16T07:07:15;99026.91;;;7.32;80.49
77877;BME280;67251;50.844;7.978;2023-05-16T07:09:40;99034.25;;;8.13;77.03
77877;BME280;67251;50.844;7.978;2023-05-16T07:12:06;99034.72;;;8.99;72.57
77877;BME280;67251;50.844;7.978;2023-05-16T07:14:31;99033.63;;;11.13;65.47
77877;BME280;67251;50.844;7.978;2023-05-16T07:16:57;99039.00;;;11.19;63.60
77877;BME280;67251;50.844;7.978;2023-05-16T07:19:22;99053.13;;;10.31;63.72
77877;BME280;67251;50.844;7.978;2023-05-16T07:21:48;99048.38;;;9.26;67.88
77877;BME280;67251;50.844;7.978;2023-05-16T07:24:14;99057.09;;;9.70;65.08
77877;BME280;67251;50.844;7.978;2023-05-16T07:26:40;99049.38;;;9.82;66.35
77877;BME280;67251;50.844;7.978;2023-05-16T07:29:05;99054.13;;;9.44;68.28
77877;BME280;67251;50.844;7.978;2023-05-16T07:31:31;99052.44;;;9.07;67.35
77877;BME280;67251;50.844;7.978;2023-05-16T07:33:56;99054.31;;;8.62;68.45
77877;BME280;67251;50.844;7.978;2023-05-16T07:36:22;99054.66;;;9.76;64.78
77877;BME280;67251;50.844;7.978;2023-05-16T07:38:47;99053.91;;;10.03;62.06
77877;BME280;67251;50.844;7.978;2023-05-16T07:41:13;99045.84;;;10.24;63.69
77877;BME280;67251;50.844;7.978;2023-05-16T07:43:39;99039.41;;;12.17;59.02
77877;BME280;67251;50.844;7.978;2023-05-16T07:46:04;99031.38;;;14.85;49.67
77877;BME280;67251;50.844;7.978;2023-05-16T07:48:30;99039.00;;;15.55;49.32
77877;BME280;67251;50.844;7.978;2023-05-16T07:50:55;99048.44;;;14.97;49.88
77877;BME280;67251;50.844;7.978;2023-05-16T07:53:21;99040.66;;;16.63;47.94
77877;BME280;67251;50.844;7.978;2023-05-16T07:55:47;99040.91;;;16.73;44.15
77877;BME280;67251;50.844;7.978;2023-05-16T07:58:13;99048.34;;;17.18;45.77
77877;BME280;67251;50.844;7.978;2023-05-16T08:00:38;99046.19;;;16.80;44.94
77877;BME280;67251;50.844;7.978;2023-05-16T08:03:04;99058.50;;;15.87;47.70
77877;BME280;67251;50.844;7.978;2023-05-16T08:05:30;99061.34;;;14.20;50.15
77877;BME280;67251;50.844;7.978;2023-05-16T08:07:56;99076.19;;;13.28;51.40
77877;BME280;67251;50.844;7.978;2023-05-16T08:10:21;99075.72;;;12.66;53.56
77877;BME280;67251;50.844;7.978;2023-05-16T08:12:48;99082.44;;;11.76;53.08
77877;BME280;67251;50.844;7.978;2023-05-16T08:15:14;99081.72;;;11.34;56.37
77877;BME280;67251;50.844;7.978;2023-05-16T08:17:39;99071.06;;;11.61;55.52
77877;BME280;67251;50.844;7.978;2023-05-16T08:20:05;99073.78;;;11.81;55.38
77877;BME280;67251;50.844;7.978;2023-05-16T08:22:31;99080.41;;;11.23;54.85
77877;BME280;67251;50.844;7.978;2023-05-16T08:24:57;99075.84;;;11.72;53.99
77877;BME280;67251;50.844;7.978;2023-05-16T08:27:25;99065.72;;;12.93;49.33
77877;BME280;67251;50.844;7.978;2023-05-16T08:29:50;99060.25;;;15.33;43.29
77877;BME280;67251;50.844;7.978;2023-05-16T08:32:16;99048.75;;;16.63;40.45
77877;BME280;67251;50.844;7.978;2023-05-16T08:34:41;99069.25;;;15.57;42.06
77877;BME280;67251;50.844;7.978;2023-05-16T08:37:07;99063.53;;;14.80;43.29
77877;BME280;67251;50.844;7.978;2023-05-16T08:39:32;99050.78;;;15.91;41.32
77877;BME280;67251;50.844;7.978;2023-05-16T08:41:59;99061.91;;;14.97;42.51
77877;BME280;67251;50.844;7.978;2023-05-16T08:44:25;99051.22;;;15.57;42.24
77877;BME280;67251;50.844;7.978;2023-05-16T08:46:51;99040.81;;;18.06;38.95
77877;BME280;67251;50.844;7.978;2023-05-16T08:49:18;99044.22;;;19.02;36.94
77877;BME280;67251;50.844;7.978;2023-05-16T08:51:47;99044.38;;;18.23;38.16
77877;BME280;67251;50.844;7.978;2023-05-16T08:54:15;99056.16;;;17.83;39.54
77877;BME280;67251;50.844;7.978;2023-05-16T08:56:42;99063.31;;;16.62;40.77
77877;BME280;67251;50.844;7.978;2023-05-16T08:59:08;99077.22;;;15.52;43.63
77877;BME280;67251;50.844;7.978;2023-05-16T09:01:35;99089.06;;;14.96;44.80
77877;BME280;67251;50.844;7.978;2023-05-16T09:04:05;99078.78;;;14.49;42.93
77877;BME280;67251;50.844;7.978;2023-05-16T09:06:31;99074.38;;;14.55;43.65
77877;BME280;67251;50.844;7.978;2023-05-16T09:08:56;99077.44;;;13.32;44.75
77877;BME280;67251;50.844;7.978;2023-05-16T09:11:22;99069.97;;;13.72;44.89
77877;BME280;67251;50.844;7.978;2023-05-16T09:13:48;99069.84;;;15.11;39.03
77877;BME280;67251;50.844;7.978;2023-05-16T09:16:15;99063.91;;;15.87;40.00
77877;BME280;67251;50.844;7.978;2023-05-16T09:18:43;99065.41;;;17.19;36.73
77877;BME280;67251;50.844;7.978;2023-05-16T09:21:09;99061.78;;;17.01;35.88
77877;BME280;67251;50.844;7.978;2023-05-16T09:23:35;99063.63;;;17.65;34.84
77877;BME280;67251;50.844;7.978;2023-05-16T09:26:02;99055.16;;;17.90;35.40
77877;BME280;67251;50.844;7.978;2023-05-16T09:28:28;99061.44;;;18.41;34.90
77877;BME280;67251;50.844;7.978;2023-05-16T09:30:54;99058.47;;;18.25;34.57
77877;BME280;67251;50.844;7.978;2023-05-16T09:33:23;99067.66;;;16.98;37.52
77877;BME280;67251;50.844;7.978;2023-05-16T09:35:55;99079.09;;;15.33;37.70
77877;BME280;67251;50.844;7.978;2023-05-16T09:38:21;99079.13;;;14.53;40.75
77877;BME280;67251;50.844;7.978;2023-05-16T09:40:46;99072.25;;;14.32;43.19
77877;BME280;67251;50.844;7.978;2023-05-16T09:43:15;99078.06;;;14.04;42.99
77877;BME280;67251;50.844;7.978;2023-05-16T09:45:44;99080.81;;;14.47;43.91
77877;BME280;67251;50.844;7.978;2023-05-16T09:48:10;99092.25;;;15.29;40.84
77877;BME280;67251;50.844;7.978;2023-05-16T09:50:39;99080.97;;;15.32;37.57
77877;BME280;67251;50.844;7.978;2023-05-16T09:53:07;99074.22;;;15.60;36.99
77877;BME280;67251;50.844;7.978;2023-05-16T09:55:32;99059.00;;;16.73;35.26
77877;BME280;67251;50.844;7.978;2023-05-16T09:57:58;99058.50;;;16.88;35.44
77877;BME280;67251;50.844;7.978;2023-05-16T10:00:31;99063.19;;;17.04;36.15
77877;BME280;67251;50.844;7.978;2023-05-16T10:02:58;99058.00;;;17.14;32.78
77877;BME280;67251;50.844;7.978;2023-05-16T10:05:30;99052.19;;;17.34;33.55
77877;BME280;67251;50.844;7.978;2023-05-16T10:07:56;99062.13;;;17.05;33.97
77877;BME280;67251;50.844;7.978;2023-05-16T10:10:22;99052.63;;;16.67;33.86
77877;BME280;67251;50.844;7.978;2023-05-16T10:12:49;99054.72;;;16.30;36.65
77877;BME280;67251;50.844;7.978;2023-05-16T10:15:16;99045.81;;;16.29;36.31
77877;BME280;67251;50.844;7.978;2023-05-16T10:17:42;99059.22;;;15.94;36.71
77877;BME280;67251;50.844;7.978;2023-05-16T10:20:10;99052.63;;;15.60;38.89
77877;BME280;67251;50.844;7.978;2023-05-16T10:22:42;99069.19;;;15.15;38.46
77877;BME280;67251;50.844;7.978;2023-05-16T10:25:14;99069.13;;;14.60;38.55
77877;BME280;67251;50.844;7.978;2023-05-16T10:27:41;99080.22;;;14.70;38.68
77877;BME280;67251;50.844;7.978;2023-05-16T10:30:07;99082.19;;;15.00;38.57
77877;BME280;67251;50.844;7.978;2023-05-16T10:32:35;99082.03;;;15.31;37.47
77877;BME280;67251;50.844;7.978;2023-05-16T10:35:03;99085.00;;;15.90;36.34
77877;BME280;67251;50.844;7.978;2023-05-16T10:37:30;99074.13;;;16.74;36.96
77877;BME280;67251;50.844;7.978;2023-05-16T10:39:58;99046.06;;;17.38;34.40
77877;BME280;67251;50.844;7.978;2023-05-16T10:42:23;99058.38;;;17.46;35.87
77877;BME280;67251;50.844;7.978;2023-05-16T10:44:53;99064.72;;;16.53;33.10
77877;BME280;67251;50.844;7.978;2023-05-16T10:47:19;99060.47;;;16.45;35.36
77877;BME280;67251;50.844;7.978;2023-05-16T10:49:44;99060.56;;;16.15;35.98
77877;BME280;67251;50.844;7.978;2023-05-16T10:52:11;99074.69;;;15.87;37.61
77877;BME280;67251;50.844;7.978;2023-05-16T10:54:50;99075.75;;;14.82;37.49
77877;BME280;67251;50.844;7.978;2023-05-16T10:57:19;99066.72;;;13.95;38.24
77877;BME280;67251;50.844;7.978;2023-05-16T10:59:48;99070.47;;;13.94;41.63
77877;BME280;67251;50.844;7.978;2023-05-16T11:02:28;99062.63;;;14.49;38.16
77877;BME280;67251;50.844;7.978;2023-05-16T11:04:55;99053.94;;;15.57;37.54
77877;BME280;67251;50.844;7.978;2023-05-16T11:07:23;99040.88;;;16.61;34.87
77877;BME280;67251;50.844;7.978;2023-05-16T11:10:14;99059.09;;;16.78;34.60
77877;BME280;67251;50.844;7.978;2023-05-16T11:12:50;99073.53;;;15.16;35.47
77877;BME280;67251;50.844;7.978;2023-05-16T11:15:27;99062.16;;;15.63;37.30
77877;BME280;67251;50.844;7.978;2023-05-16T11:18:08;99061.44;;;15.86;36.29
77877;BME280;67251;50.844;7.978;2023-05-16T11:20:38;99075.31;;;15.22;38.08
77877;BME280;67251;50.844;7.978;2023-05-16T11:25:42;99071.97;;;14.65;38.23
77877;BME280;67251;50.844;7.978;2023-05-16T11:28:11;99066.41;;;15.03;40.96
77877;BME280;67251;50.844;7.978;2023-05-16T11:30:41;99065.97;;;15.55;37.08
77877;BME280;67251;50.844;7.978;2023-05-16T11:33:07;99055.28;;;15.67;37.84
77877;BME280;67251;50.844;7.978;2023-05-16T11:35:33;99056.34;;;16.19;37.45
77877;BME280;67251;50.844;7.978;2023-05-16T11:37:58;99071.97;;;14.65;37.97
77877;BME280;67251;50.844;7.978;2023-05-16T11:40:25;99076.69;;;13.57;37.64
77877;BME280;67251;50.844;7.978;2023-05-16T11:42:51;99064.59;;;13.72;38.28
77877;BME280;67251;50.844;7.978;2023-05-16T11:45:19;99060.28;;;14.28;40.84
77877;BME280;67251;50.844;7.978;2023-05-16T11:47:49;99071.66;;;14.55;36.38
77877;BME280;67251;50.844;7.978;2023-05-16T11:50:20;99053.47;;;14.50;34.25
77877;BME280;67251;50.844;7.978;2023-05-16T11:52:48;99057.19;;;14.74;35.30
77877;BME280;67251;50.844;7.978;2023-05-16T11:55:19;99056.88;;;15.38;35.42
77877;BME280;67251;50.844;7.978;2023-05-16T11:57:45;99058.69;;;15.25;36.11
77877;BME280;67251;50.844;7.978;2023-05-16T12:00:13;99061.09;;;15.15;36.86
77877;BME280;67251;50.844;7.978;2023-05-16T12:02:41;99090.72;;;14.53;36.82
77877;BME280;67251;50.844;7.978;2023-05-16T12:05:09;99088.44;;;13.62;36.84
77877;BME280;67251;50.844;7.978;2023-05-16T12:07:36;99079.59;;;13.87;38.37
77877;BME280;67251;50.844;7.978;2023-05-16T12:10:10;99074.56;;;14.28;35.16
77877;BME280;67251;50.844;7.978;2023-05-16T12:12:37;99061.91;;;14.04;36.70
77877;BME280;67251;50.844;7.978;2023-05-16T12:15:04;99067.63;;;14.14;37.71
77877;BME280;67251;50.844;7.978;2023-05-16T12:17:39;99054.75;;;14.48;39.44
77877;BME280;67251;50.844;7.978;2023-05-16T12:20:05;99070.81;;;15.16;35.80
77877;BME280;67251;50.844;7.978;2023-05-16T12:22:32;99052.34;;;15.50;33.39
77877;BME280;67251;50.844;7.978;2023-05-16T12:24:59;99055.63;;;15.52;35.57
77877;BME280;67251;50.844;7.978;2023-05-16T12:27:25;99058.16;;;15.35;35.32
77877;BME280;67251;50.844;7.978;2023-05-16T12:29:51;99067.78;;;15.43;34.23
77877;BME280;67251;50.844;7.978;2023-05-16T12:32:18;99063.13;;;15.20;34.97
77877;BME280;67251;50.844;7.978;2023-05-16T12:34:51;99060.34;;;14.90;35.16
77877;BME280;67251;50.844;7.978;2023-05-16T12:37:16;99065.53;;;14.41;36.63
77877;BME280;67251;50.844;7.978;2023-05-16T12:39:43;99078.22;;;13.77;37.57
77877;BME280;67251;50.844;7.978;2023-05-16T12:42:11;99079.38;;;13.50;38.78
77877;BME280;67251;50.844;7.978;2023-05-16T12:44:37;99077.47;;;13.95;38.01
77877;BME280;67251;50.844;7.978;2023-05-16T12:47:03;99073.69;;;14.60;36.74
77877;BME280;67251;50.844;7.978;2023-05-16T12:49:28;99066.34;;;14.92;36.05
77877;BME280;67251;50.844;7.978;2023-05-16T12:51:54;99061.28;;;14.59;36.75
77877;BME280;67251;50.844;7.978;2023-05-16T12:54:21;99064.25;;;13.94;37.96
77877;BME280;67251;50.844;7.978;2023-05-16T12:56:47;99078.25;;;13.19;39.58
77877;BME280;67251;50.844;7.978;2023-05-16T12:59:13;99077.84;;;13.29;40.13
77877;BME280;67251;50.844;7.978;2023-05-16T13:01:39;99072.00;;;14.09;39.68
77877;BME280;67251;50.844;7.978;2023-05-16T13:04:05;99067.06;;;15.17;36.38
77877;BME280;67251;50.844;7.978;2023-05-16T13:06:31;99052.16;;;16.23;35.97
77877;BME280;67251;50.844;7.978;2023-05-16T13:08:57;99051.22;;;16.53;33.19
77877;BME280;67251;50.844;7.978;2023-05-16T13:11:23;99049.28;;;16.18;32.71
77877;BME280;67251;50.844;7.978;2023-05-16T13:13:48;99065.03;;;15.49;35.08